createdAt,value
2019-03-16T00:00:00.756Z,78.15
2019-03-16T00:02:26.944Z,78.09
2019-03-16T00:04:53.383Z,77.99
2019-03-16T00:07:32.226Z,78.00
2019-03-16T00:09:47.871Z,78.42
2019-03-16T00:12:14.249Z,78.10
2019-03-16T00:14:42.451Z,78.04
2019-03-16T00:17:10.378Z,78.17
2019-03-16T00:19:36.660Z,78.23
2019-03-16T00:22:02.922Z,78.26
2019-03-16T00:24:29.213Z,78.42
2019-03-16T00:26:55.485Z,79.00
2019-03-16T00:29:21.740Z,79.16
2019-03-16T00:31:50.302Z,79.08
2019-03-16T00:34:16.580Z,78.85
2019-03-16T00:36:42.864Z,78.81
2019-03-16T00:39:09.143Z,78.75
2019-03-16T00:41:35.392Z,78.83
2019-03-16T00:44:01.696Z,78.72
2019-03-16T00:46:27.970Z,78.56
2019-03-16T00:48:54.194Z,78.59
2019-03-16T00:51:20.481Z,78.72
2019-03-16T00:53:46.791Z,78.56
2019-03-16T00:56:13.104Z,78.91
2019-03-16T00:58:39.369Z,79.05
2019-03-16T01:01:05.627Z,79.32
2019-03-16T01:03:31.903Z,79.16
2019-03-16T01:05:58.177Z,78.82
2019-03-16T01:08:24.478Z,78.37
2019-03-16T01:10:50.675Z,78.07
2019-03-16T01:13:16.940Z,77.83
2019-03-16T01:15:43.218Z,77.57
2019-03-16T01:18:09.367Z,77.40
2019-03-16T01:20:35.681Z,77.36
2019-03-16T01:23:01.940Z,77.23
2019-03-16T01:25:28.198Z,77.18
2019-03-16T01:27:54.369Z,77.16
2019-03-16T01:30:20.633Z,77.06
2019-03-16T01:32:46.824Z,77.26
2019-03-16T01:35:14.815Z,77.59
2019-03-16T01:37:41.083Z,77.57
2019-03-16T01:40:08.345Z,77.46
2019-03-16T01:42:34.630Z,77.37
2019-03-16T01:45:00.897Z,77.24
2019-03-16T01:47:27.128Z,76.98
2019-03-16T01:49:53.335Z,76.89
2019-03-16T01:52:19.622Z,76.87
2019-03-16T01:54:45.722Z,76.90
2019-03-16T01:57:12.018Z,76.95
2019-03-16T01:59:38.317Z,77.13
2019-03-16T02:02:04.570Z,77.13
2019-03-16T02:04:30.852Z,77.06
2019-03-16T02:06:57.169Z,77.64
2019-03-16T02:09:26.221Z,77.97
2019-03-16T02:12:00.632Z,77.98
2019-03-16T02:14:27.068Z,78.10
2019-03-16T02:16:53.337Z,77.92
2019-03-16T02:19:19.728Z,78.30
2019-03-16T02:21:46.010Z,78.12
2019-03-16T02:24:12.346Z,78.03
2019-03-16T02:26:38.742Z,78.55
2019-03-16T02:29:05.031Z,78.67
2019-03-16T02:31:34.141Z,79.12
2019-03-16T02:34:00.480Z,79.41
2019-03-16T02:36:27.004Z,80.03
2019-03-16T02:38:57.754Z,80.38
2019-03-16T02:41:21.478Z,80.24
2019-03-16T02:43:47.826Z,80.76
2019-03-16T02:46:14.101Z,80.81
2019-03-16T02:48:40.477Z,80.99
2019-03-16T03:02:27.111Z,81.05
2019-03-16T03:04:53.445Z,80.93
2019-03-16T03:07:19.726Z,80.96
2019-03-16T03:09:46.044Z,80.54
2019-03-16T03:12:12.362Z,80.27
2019-03-16T03:14:38.419Z,80.14
2019-03-16T03:17:04.715Z,79.88
2019-03-16T03:19:31.024Z,79.80
2019-03-16T03:21:57.288Z,79.67
2019-03-16T03:24:23.521Z,79.61
2019-03-16T03:26:49.736Z,79.81
2019-03-16T03:29:16.024Z,79.57
2019-03-16T03:31:42.304Z,79.71
2019-03-16T03:34:08.606Z,79.55
2019-03-16T03:36:34.792Z,79.39
2019-03-16T03:39:01.004Z,79.53
2019-03-16T03:41:27.232Z,79.47
2019-03-16T03:43:53.492Z,79.15
2019-03-16T03:46:19.661Z,79.39
2019-03-16T03:48:45.833Z,79.24
2019-03-16T03:51:12.050Z,79.64
2019-03-16T03:53:41.130Z,80.18
2019-03-16T03:56:06.254Z,80.04
2019-03-16T03:58:32.530Z,79.81
2019-03-16T04:00:58.827Z,79.61
2019-03-16T04:03:25.061Z,79.58
2019-03-16T04:05:51.295Z,79.24
2019-03-16T04:08:21.556Z,79.04
2019-03-16T04:10:50.399Z,78.79
2019-03-16T04:13:16.806Z,78.58
2019-03-16T04:15:42.978Z,78.48
2019-03-16T04:20:44.275Z,78.27
2019-03-16T04:23:10.255Z,78.06
2019-03-16T04:25:36.525Z,77.94
2019-03-16T04:28:02.712Z,77.81
2019-03-16T04:30:28.978Z,77.68
2019-03-16T04:32:55.236Z,77.74
2019-03-16T04:38:07.249Z,77.57
2019-03-16T04:40:33.425Z,77.69
2019-03-16T04:42:59.701Z,77.87
2019-03-16T04:45:25.945Z,77.78
2019-03-16T04:47:52.195Z,77.26
2019-03-16T04:50:18.400Z,77.24
2019-03-16T04:52:44.584Z,77.07
2019-03-16T04:55:10.857Z,76.93
2019-03-16T04:57:37.091Z,76.76
2019-03-16T05:00:11.952Z,76.63
2019-03-16T05:02:38.283Z,76.73
2019-03-16T05:05:04.468Z,76.79
2019-03-16T05:07:30.719Z,76.81
2019-03-16T05:09:57.025Z,76.76
2019-03-16T05:12:23.345Z,76.13
2019-03-16T05:14:49.537Z,76.15
2019-03-16T05:17:15.837Z,75.82
2019-03-16T05:19:42.123Z,75.93
2019-03-16T05:22:08.412Z,75.98
2019-03-16T05:24:34.682Z,75.99
2019-03-16T05:27:00.994Z,75.99
2019-03-16T05:29:27.274Z,76.06
2019-03-16T05:31:53.530Z,75.67
2019-03-16T05:34:22.927Z,75.16
2019-03-16T05:36:48.974Z,75.26
2019-03-16T05:39:15.289Z,75.15
2019-03-16T05:41:41.565Z,74.81
2019-03-16T05:44:07.870Z,75.07
2019-03-16T05:46:34.141Z,75.22
2019-03-16T05:49:00.303Z,75.27
2019-03-16T05:51:26.627Z,75.09
2019-03-16T05:53:52.878Z,74.90
2019-03-16T05:56:19.117Z,74.38
2019-03-16T05:58:45.393Z,74.27
2019-03-16T06:01:11.475Z,74.11
2019-03-16T06:03:37.502Z,73.68
2019-03-16T06:06:05.593Z,73.71
2019-03-16T06:08:31.813Z,73.76
2019-03-16T06:10:57.908Z,73.78
2019-03-16T06:13:24.216Z,73.65
2019-03-16T06:15:50.480Z,73.81
2019-03-16T06:18:16.766Z,73.46
2019-03-16T06:20:43.172Z,73.74
2019-03-16T06:23:09.496Z,73.42
2019-03-16T06:25:35.781Z,73.02
2019-03-16T06:28:01.929Z,71.53
2019-03-16T06:30:28.041Z,71.90
2019-03-16T06:32:54.108Z,72.52
2019-03-16T06:35:25.016Z,72.56
2019-03-16T06:37:48.664Z,72.32
2019-03-16T06:40:14.810Z,72.64
2019-03-16T06:42:41.078Z,72.46
2019-03-16T06:45:08.747Z,72.19
2019-03-16T06:47:34.909Z,72.26
2019-03-16T06:50:01.271Z,72.00
2019-03-16T06:52:27.431Z,71.87
2019-03-16T06:54:53.745Z,71.58
2019-03-16T06:57:20.071Z,71.54
2019-03-16T06:59:46.392Z,70.99
2019-03-16T07:02:12.668Z,71.01
2019-03-16T07:04:40.825Z,70.79
2019-03-16T07:07:07.185Z,67.90
2019-03-16T07:09:33.484Z,68.37
2019-03-16T07:11:59.670Z,68.37
2019-03-16T07:14:25.935Z,68.75
2019-03-16T07:17:01.873Z,69.04
2019-03-16T07:19:24.098Z,68.70
2019-03-16T07:21:50.051Z,68.76
2019-03-16T07:24:16.308Z,69.35
2019-03-16T07:26:42.577Z,69.45
2019-03-16T07:29:09.167Z,68.48
2019-03-16T07:31:36.789Z,68.88
2019-03-16T07:34:03.208Z,67.24
2019-03-16T07:36:29.514Z,67.08
2019-03-16T07:38:55.749Z,67.12
2019-03-16T07:41:22.061Z,67.49
2019-03-16T07:43:48.336Z,67.79
2019-03-16T07:46:16.049Z,67.40
2019-03-16T07:48:42.225Z,66.82
2019-03-16T07:51:08.487Z,66.71
2019-03-16T07:53:34.831Z,66.71
2019-03-16T07:56:01.211Z,63.54
2019-03-16T07:58:27.257Z,64.67
2019-03-16T08:00:53.446Z,65.16
2019-03-16T08:03:19.566Z,65.93
2019-03-16T08:05:45.503Z,65.42
2019-03-16T08:08:11.424Z,66.07
2019-03-16T08:10:37.621Z,64.85
2019-03-16T08:13:03.568Z,64.02
2019-03-16T08:15:29.778Z,65.05
2019-03-16T08:17:55.785Z,64.82
2019-03-16T08:20:21.941Z,64.33
2019-03-16T08:22:50.256Z,65.11
2019-03-16T08:25:16.304Z,64.26
2019-03-16T08:27:53.523Z,63.15
2019-03-16T08:30:10.368Z,63.16
2019-03-16T08:32:36.546Z,62.72
2019-03-16T08:35:03.838Z,61.99
2019-03-16T08:37:29.899Z,59.29
2019-03-16T08:39:55.938Z,59.72
2019-03-16T08:42:22.342Z,59.17
2019-03-16T08:44:48.407Z,60.05
2019-03-16T08:47:14.490Z,58.62
2019-03-16T08:49:40.545Z,56.47
2019-03-16T08:52:06.639Z,56.76
2019-03-16T08:54:32.800Z,57.39
2019-03-16T08:56:58.851Z,57.15
2019-03-16T08:59:24.859Z,57.02
2019-03-16T09:01:51.111Z,57.16
2019-03-16T09:04:17.242Z,56.37
2019-03-16T09:06:43.352Z,56.30
2019-03-16T09:09:09.483Z,57.18
2019-03-16T09:11:35.644Z,56.78
2019-03-16T09:14:05.528Z,54.85
2019-03-16T09:16:31.462Z,54.26
2019-03-16T09:18:57.612Z,55.01
2019-03-16T09:21:23.699Z,55.03
2019-03-16T09:23:49.866Z,54.38
2019-03-16T09:26:16.126Z,54.40
2019-03-16T09:28:42.384Z,55.42
2019-03-16T09:31:08.547Z,54.55
2019-03-16T09:33:34.620Z,54.07
2019-03-16T09:36:00.683Z,53.65
2019-03-16T09:38:26.743Z,53.59
2019-03-16T09:40:53.535Z,52.61
2019-03-16T09:43:19.764Z,54.00
2019-03-16T09:45:46.053Z,53.54
2019-03-16T09:48:12.314Z,53.96
2019-03-16T09:50:38.592Z,52.63
2019-03-16T09:53:04.847Z,53.37
2019-03-16T09:55:35.095Z,53.10
2019-03-16T09:58:00.339Z,52.30
2019-03-16T10:00:29.392Z,53.26
2019-03-16T10:02:55.607Z,51.42
2019-03-16T10:05:21.984Z,51.65
2019-03-16T10:07:48.257Z,51.90
2019-03-16T10:10:14.446Z,52.91
2019-03-16T10:12:40.777Z,52.79
2019-03-16T10:15:12.102Z,52.78
2019-03-16T10:17:38.302Z,53.68
2019-03-16T10:20:07.291Z,53.31
2019-03-16T10:22:33.620Z,53.39
2019-03-16T10:25:00.179Z,52.95
2019-03-16T10:27:26.749Z,52.65
2019-03-16T10:29:53.101Z,52.88
2019-03-16T10:32:19.407Z,51.94
2019-03-16T10:34:45.737Z,52.12
2019-03-16T10:37:14.145Z,51.15
2019-03-16T10:39:40.370Z,51.63
2019-03-16T10:42:09.405Z,50.90
2019-03-16T10:44:35.689Z,49.58
2019-03-16T10:47:04.006Z,50.13
2019-03-16T10:49:30.386Z,49.83
2019-03-16T10:51:56.698Z,50.98
2019-03-16T10:54:22.947Z,50.16
2019-03-16T10:56:49.117Z,50.73
2019-03-16T10:59:15.920Z,50.96
2019-03-16T11:01:42.122Z,51.09
2019-03-16T11:04:08.458Z,50.89
2019-03-16T11:06:37.089Z,50.28
2019-03-16T11:09:05.406Z,48.76
2019-03-16T11:11:31.619Z,48.81
2019-03-16T11:13:57.922Z,50.25
2019-03-16T11:16:24.623Z,49.74
2019-03-16T11:18:50.881Z,50.09
2019-03-16T11:21:17.159Z,50.70
2019-03-16T11:23:43.476Z,50.92
2019-03-16T11:26:09.764Z,49.25
2019-03-16T11:28:36.072Z,48.76
2019-03-16T11:31:02.403Z,48.31
2019-03-16T11:33:30.069Z,48.94
2019-03-16T11:35:56.439Z,48.10
2019-03-16T11:38:25.615Z,48.70
2019-03-16T11:43:43.735Z,48.66
2019-03-16T11:46:10.138Z,48.43
2019-03-16T11:48:36.438Z,47.85
2019-03-16T11:51:02.687Z,47.23
2019-03-16T11:53:29.091Z,47.90
2019-03-16T11:55:55.425Z,47.80
2019-03-16T11:58:21.605Z,47.81
2019-03-16T12:00:47.891Z,47.75
2019-03-16T12:03:16.526Z,48.25
2019-03-16T12:05:42.771Z,46.60
2019-03-16T12:08:09.119Z,47.66
2019-03-16T12:10:35.161Z,47.56
2019-03-16T12:13:01.491Z,48.20
2019-03-16T12:15:27.798Z,47.70
2019-03-16T12:17:54.070Z,46.49
2019-03-16T12:20:23.287Z,46.23
2019-03-16T12:22:49.531Z,47.00
2019-03-16T12:25:15.811Z,46.93
2019-03-16T12:27:42.112Z,46.38
2019-03-16T12:30:10.346Z,47.08
2019-03-16T12:32:36.610Z,47.34
2019-03-16T12:35:05.615Z,47.14
2019-03-16T12:37:31.824Z,47.37
2019-03-16T12:39:58.217Z,47.55
2019-03-16T12:42:24.511Z,47.56
2019-03-16T12:44:52.700Z,47.29
2019-03-16T12:47:18.929Z,47.57
2019-03-16T12:49:45.562Z,46.29
2019-03-16T12:52:11.843Z,46.78
2019-03-16T12:54:38.088Z,46.76
2019-03-16T12:57:04.553Z,46.22
2019-03-16T12:59:30.888Z,45.70
2019-03-16T13:01:57.115Z,46.66
2019-03-16T13:04:23.237Z,46.10
2019-03-16T13:06:49.542Z,45.91
2019-03-16T13:09:15.818Z,46.74
2019-03-16T13:11:41.889Z,45.73
2019-03-16T13:14:09.461Z,45.46
2019-03-16T13:16:37.344Z,46.25
2019-03-16T13:19:03.578Z,45.79
2019-03-16T13:21:29.838Z,45.40
2019-03-16T13:23:56.127Z,45.94
2019-03-16T13:26:22.451Z,45.94
2019-03-16T13:28:48.831Z,45.16
2019-03-16T13:31:15.165Z,45.53
2019-03-16T13:33:41.503Z,45.72
2019-03-16T13:36:07.774Z,45.23
2019-03-16T13:38:33.988Z,43.82
2019-03-16T13:41:00.578Z,44.78
2019-03-16T13:43:26.926Z,45.13
2019-03-16T13:45:53.301Z,44.89
2019-03-16T13:48:25.623Z,44.93
2019-03-16T13:52:32.987Z,45.11
2019-03-16T13:53:29.237Z,44.90
2019-03-16T13:55:56.109Z,44.79
2019-03-16T13:58:22.456Z,45.04
2019-03-16T14:00:48.716Z,45.26
2019-03-16T14:03:15.234Z,45.40
2019-03-16T14:05:43.401Z,45.53
2019-03-16T14:08:09.725Z,44.80
2019-03-16T14:10:36.012Z,44.38
2019-03-16T14:13:02.285Z,45.09
2019-03-16T14:15:28.535Z,43.90
2019-03-16T14:17:57.775Z,44.70
2019-03-16T14:20:23.128Z,45.26
2019-03-16T14:22:49.555Z,44.96
2019-03-16T14:25:15.793Z,45.31
2019-03-16T14:27:42.108Z,45.30
2019-03-16T14:30:29.156Z,45.11
2019-03-16T14:32:41.769Z,45.18
2019-03-16T14:35:08.279Z,44.69
2019-03-16T14:37:34.593Z,45.63
2019-03-16T14:40:00.852Z,45.24
2019-03-16T14:42:28.437Z,44.68
2019-03-16T14:45:03.632Z,43.94
2019-03-16T14:47:29.995Z,44.86
2019-03-16T14:49:56.164Z,44.54
2019-03-16T14:52:22.412Z,43.97
2019-03-16T14:54:48.618Z,43.80
2019-03-16T14:57:14.923Z,43.93
2019-03-16T14:59:41.255Z,44.86
2019-03-16T15:02:07.525Z,44.18
2019-03-16T15:04:33.771Z,43.93
2019-03-16T15:07:00.045Z,43.85
2019-03-16T15:09:26.314Z,44.82
2019-03-16T15:11:52.606Z,44.15
2019-03-16T15:14:21.780Z,44.36
2019-03-16T15:16:47.171Z,43.98
2019-03-16T15:19:13.454Z,44.22
2019-03-16T15:21:39.811Z,43.95
2019-03-16T15:24:07.940Z,43.80
2019-03-16T15:26:49.175Z,43.80
2019-03-16T15:34:56.950Z,44.48
2019-03-16T15:37:23.224Z,43.63
2019-03-16T15:39:49.453Z,43.21
2019-03-16T15:42:17.623Z,42.98
2019-03-16T15:44:43.995Z,42.48
2019-03-16T15:47:19.334Z,42.91
2019-03-16T15:49:45.673Z,43.66
2019-03-16T15:52:11.977Z,43.81
2019-03-16T15:54:38.359Z,43.65
2019-03-16T15:57:04.646Z,43.29
2019-03-16T15:59:30.992Z,43.88
2019-03-16T16:01:59.415Z,44.21
2019-03-16T16:04:25.745Z,44.59
2019-03-16T16:07:02.862Z,44.97
2019-03-16T16:09:20.592Z,46.13
2019-03-16T16:11:46.920Z,46.13
2019-03-16T16:14:13.267Z,46.72
2019-03-16T16:16:39.606Z,47.32
2019-03-16T16:19:05.895Z,47.76
2019-03-16T16:21:32.224Z,48.10
2019-03-16T16:24:35.525Z,48.45
2019-03-16T16:26:38.926Z,48.74
2019-03-16T16:29:04.906Z,49.10
2019-03-16T16:31:31.192Z,49.27
2019-03-16T16:33:57.505Z,49.48
2019-03-16T16:36:23.852Z,49.66
2019-03-16T16:38:50.136Z,49.89
2019-03-16T16:41:16.420Z,50.33
2019-03-16T16:43:42.596Z,50.73
2019-03-16T16:46:10.716Z,51.04
2019-03-16T16:48:37.062Z,51.11
2019-03-16T16:51:03.355Z,51.45
2019-03-16T16:53:29.969Z,51.66
2019-03-16T16:55:56.470Z,51.70
2019-03-16T16:58:23.022Z,52.02
2019-03-16T17:00:57.055Z,52.25
2019-03-16T17:09:58.094Z,53.60
2019-03-16T17:12:38.443Z,53.81
2019-03-16T17:15:02.236Z,53.95
2019-03-16T17:17:35.740Z,54.25
2019-03-16T17:20:04.048Z,54.36
2019-03-16T17:22:48.832Z,54.47
2019-03-16T17:26:43.740Z,54.58
2019-03-16T17:28:37.427Z,55.01
2019-03-16T17:31:13.118Z,55.08
2019-03-16T17:33:39.865Z,55.29
2019-03-16T17:36:14.573Z,55.25
2019-03-16T17:38:44.506Z,55.29
2019-03-16T17:41:10.769Z,55.36
2019-03-16T17:43:37.125Z,55.63
2019-03-16T17:46:03.190Z,55.58
2019-03-16T17:52:17.101Z,55.99
2019-03-16T17:54:46.204Z,56.26
2019-03-16T17:57:33.282Z,56.05
2019-03-16T17:59:56.235Z,56.20
2019-03-16T18:05:40.405Z,56.12
2019-03-16T18:08:13.124Z,55.99
2019-03-16T18:18:10.238Z,56.33
2019-03-16T18:23:39.843Z,56.36
2019-03-16T18:26:07.866Z,56.46
2019-03-16T18:29:03.649Z,56.46
2019-03-16T18:31:29.821Z,56.68
2019-03-16T18:33:56.114Z,56.71
2019-03-16T18:36:22.386Z,56.82
2019-03-16T18:38:48.664Z,56.68
2019-03-16T18:41:16.355Z,56.69
2019-03-16T18:43:42.697Z,56.86
2019-03-16T18:46:08.865Z,56.78
2019-03-16T18:48:35.047Z,56.89
2019-03-16T18:51:01.333Z,57.04
2019-03-16T18:53:27.498Z,57.18
2019-03-16T18:55:53.727Z,57.20
2019-03-16T18:58:20.041Z,57.28
2019-03-16T19:00:46.377Z,57.59
2019-03-16T19:03:14.375Z,57.62
2019-03-16T19:05:40.387Z,58.04
2019-03-16T19:08:06.341Z,57.92
2019-03-16T19:10:36.240Z,58.09
2019-03-16T19:13:02.449Z,58.06
2019-03-16T19:15:28.620Z,58.03
2019-03-16T19:17:58.917Z,58.24
2019-03-16T19:20:22.935Z,58.22
2019-03-16T19:22:49.652Z,58.40
2019-03-16T19:25:21.206Z,58.65
2019-03-16T19:27:50.701Z,58.72
2019-03-16T19:30:17.063Z,58.61
2019-03-16T19:32:43.356Z,58.55
2019-03-16T19:35:09.558Z,58.71
2019-03-16T19:37:35.735Z,58.64
2019-03-16T19:40:02.003Z,58.79
2019-03-16T19:42:28.252Z,58.69
2019-03-16T19:44:54.642Z,58.65
2019-03-16T19:47:21.067Z,58.75
2019-03-16T19:49:47.349Z,58.74
2019-03-16T19:52:13.515Z,58.82
2019-03-16T19:54:39.720Z,58.92
2019-03-16T19:57:15.258Z,59.10
2019-03-16T19:59:34.364Z,59.15
2019-03-16T20:02:00.711Z,59.22
2019-03-16T20:04:36.015Z,59.67
2019-03-16T20:06:59.087Z,59.70
2019-03-16T20:09:27.898Z,59.84
2019-03-16T20:11:53.967Z,59.84
2019-03-16T20:14:20.216Z,60.00
2019-03-16T20:16:46.367Z,60.02
2019-03-16T20:19:12.460Z,60.18
2019-03-16T20:21:38.539Z,60.30
2019-03-16T20:24:04.560Z,60.14
2019-03-16T20:26:30.804Z,60.09
2019-03-16T20:28:57.050Z,60.35
2019-03-16T20:31:23.289Z,60.50
2019-03-16T20:33:49.378Z,60.66
2019-03-16T20:36:15.670Z,60.88
2019-03-16T20:38:41.954Z,60.90
2019-03-16T20:41:08.215Z,60.84
2019-03-16T20:43:37.728Z,61.04
2019-03-16T20:46:04.001Z,61.01
2019-03-16T20:48:30.282Z,61.25
2019-03-16T20:50:56.518Z,61.28
2019-03-16T20:53:22.877Z,61.73
2019-03-16T20:55:51.316Z,62.06
2019-03-16T20:58:17.330Z,62.31
2019-03-16T21:00:43.594Z,62.48
2019-03-16T21:03:16.509Z,62.97
2019-03-16T21:05:42.987Z,63.09
2019-03-16T21:08:09.118Z,63.13
2019-03-16T21:10:39.808Z,63.14
2019-03-16T21:13:04.592Z,63.31
2019-03-16T21:15:30.924Z,63.25
2019-03-16T21:17:59.681Z,63.80
2019-03-16T21:20:26.090Z,63.80
2019-03-16T21:22:52.359Z,64.01
2019-03-16T21:25:18.504Z,64.57
2019-03-16T21:27:44.842Z,64.83
2019-03-16T21:30:16.109Z,65.36
2019-03-16T21:32:42.264Z,65.45
2019-03-16T21:35:08.543Z,66.04
2019-03-16T21:37:34.672Z,66.45
2019-03-16T21:40:00.987Z,66.79
2019-03-16T21:42:39.679Z,66.94
2019-03-16T21:45:34.272Z,66.99
2019-03-16T21:47:59.378Z,67.16
2019-03-16T21:50:18.693Z,67.15
2019-03-16T21:52:45.168Z,67.35
2019-03-16T21:55:12.067Z,67.64
2019-03-16T21:57:41.216Z,67.95
2019-03-16T22:00:14.487Z,68.47
2019-03-16T22:02:40.742Z,69.94
2019-03-16T22:05:08.015Z,70.60
2019-03-16T22:07:38.403Z,70.34
2019-03-16T22:10:09.290Z,71.30
2019-03-16T22:12:35.471Z,71.17
2019-03-16T22:15:01.623Z,70.93
2019-03-16T22:17:27.698Z,70.78
2019-03-16T22:19:53.948Z,71.22
2019-03-16T22:22:20.036Z,71.22
2019-03-16T22:24:46.115Z,71.34
2019-03-16T22:27:12.264Z,71.88
2019-03-16T22:29:38.454Z,71.84
2019-03-16T22:32:04.579Z,71.79
2019-03-16T22:34:30.767Z,71.66
2019-03-16T22:36:57.029Z,71.81
2019-03-16T22:39:27.507Z,71.89
2019-03-16T22:41:53.719Z,72.64
2019-03-16T22:44:20.021Z,72.72
2019-03-16T22:46:46.134Z,72.76
2019-03-16T22:49:12.315Z,72.70
2019-03-16T22:51:38.551Z,72.83
2019-03-16T22:54:04.746Z,72.84
2019-03-16T22:56:31.006Z,72.86
2019-03-16T22:58:57.179Z,72.87
2019-03-16T23:01:23.443Z,73.24
2019-03-16T23:03:49.715Z,74.12
2019-03-16T23:06:15.768Z,74.52
2019-03-16T23:08:42.056Z,74.53
2019-03-16T23:11:08.216Z,74.76
2019-03-16T23:13:34.380Z,74.94
2019-03-16T23:16:00.448Z,74.92
2019-03-16T23:18:26.638Z,74.85
2019-03-16T23:20:52.869Z,75.01
2019-03-16T23:23:18.920Z,74.97
2019-03-16T23:25:45.166Z,75.15
2019-03-16T23:28:11.420Z,75.08
2019-03-16T23:30:37.606Z,74.92
2019-03-16T23:33:03.947Z,74.74
2019-03-16T23:35:30.272Z,75.00
2019-03-16T23:37:56.605Z,74.89
2019-03-16T23:40:22.967Z,74.77
2019-03-16T23:42:49.359Z,75.23
2019-03-16T23:45:15.746Z,75.63
2019-03-16T23:47:41.946Z,75.39
2019-03-16T23:50:09.769Z,75.10
2019-03-16T23:52:37.200Z,74.93
2019-03-16T23:55:05.174Z,74.78
2019-03-16T23:57:31.463Z,74.83
2019-03-16T23:59:58.178Z,75.38
